Time;durP1;ratioP1;P1;durP2;ratioP2;P2;SDS_P1;SDS_P2;PMS_P1;PMS_P2;Temp;Humidity;BMP_temperature;BMP_pressure;BME280_temperature;BME280_humidity;BME280_pressure;Samples;Min_cycle;Max_cycle;Signal;HPM_P1;HPM_P2
2022/09/01 00:00:27;;;;;;;;;;;15.90;99.90;;;;;;5069441;28;19928;-49
2022/09/01 00:02:56;;;;;;;;;;;15.80;99.90;;;;;;5067943;28;19927;-46
2022/09/01 00:05:21;;;;;;;;;;;15.80;99.90;;;;;;5067796;28;19924;-49
2022/09/01 00:07:48;;;;;;;;;;;15.70;99.90;;;;;;5068892;28;19929;-48
2022/09/01 00:10:14;;;;;;;;;;;15.90;99.90;;;;;;5069088;28;19917;-49
2022/09/01 00:12:39;;;;;;;;;;;15.70;99.90;;;;;;5069413;28;19931;-49
2022/09/01 00:15:06;;;;;;;;;;;15.70;99.90;;;;;;5069277;28;20013;-48
2022/09/01 00:17:32;;;;;;;;;;;15.60;99.90;;;;;;5071261;28;19917;-48
2022/09/01 00:19:58;;;;;;;;;;;15.60;99.90;;;;;;5071025;28;19923;-49
2022/09/01 00:22:23;;;;;;;;;;;15.60;99.90;;;;;;5072346;28;19920;-46
2022/09/01 00:24:49;;;;;;;;;;;15.60;99.90;;;;;;5072492;28;19965;-47
2022/09/01 00:27:15;;;;;;;;;;;15.60;99.90;;;;;;5072145;28;19928;-49
2022/09/01 00:29:40;;;;;;;;;;;15.60;99.90;;;;;;5072123;28;19916;-49
2022/09/01 00:32:06;;;;;;;;;;;15.50;99.90;;;;;;5072692;28;19920;-48
2022/09/01 00:34:31;;;;;;;;;;;15.50;99.90;;;;;;5072306;28;19935;-50
2022/09/01 00:36:57;;;;;;;;;;;15.40;99.90;;;;;;5071834;28;20383;-46
2022/09/01 00:39:22;;;;;;;;;;;15.40;99.90;;;;;;5072084;28;20355;-49
2022/09/01 00:41:49;;;;;;;;;;;15.40;99.90;;;;;;5071927;28;19916;-50
2022/09/01 00:44:17;;;;;;;;;;;15.20;99.90;;;;;;5072570;28;20336;-49
2022/09/01 00:46:44;;;;;;;;;;;15.30;99.90;;;;;;5071254;28;19982;-50
2022/09/01 00:49:18;;;;;;;;;;;15.20;99.90;;;;;;5071833;28;20382;-49
2022/09/01 00:51:46;;;;;;;;;;;15.10;99.90;;;;;;5072208;28;20264;-48
2022/09/01 00:54:13;;;;;;;;;;;15.20;99.90;;;;;;5072175;28;19965;-50
2022/09/01 00:56:40;;;;;;;;;;;15.10;99.90;;;;;;5071442;28;19916;-48
2022/09/01 00:59:06;;;;;;;;;;;15.00;99.90;;;;;;5072422;28;19916;-49
2022/09/01 01:01:34;;;;;;;;;;;15.00;99.90;;;;;;5071877;28;19963;-49
2022/09/01 01:04:01;;;;;;;;;;;15.00;99.90;;;;;;5072195;28;19942;-47
2022/09/01 01:06:29;;;;;;;;;;;15.00;99.90;;;;;;5071124;28;19942;-48
2022/09/01 01:08:56;;;;;;;;;;;14.90;99.90;;;;;;5071842;28;19963;-48
2022/09/01 01:11:23;;;;;;;;;;;15.00;99.90;;;;;;5070934;28;19932;-47
2022/09/01 01:13:54;;;;;;;;;;;14.90;99.90;;;;;;5071617;28;20273;-48
2022/09/01 01:16:21;;;;;;;;;;;14.90;99.90;;;;;;5071225;28;19932;-46
2022/09/01 01:18:47;;;;;;;;;;;15.00;99.90;;;;;;5071326;28;20359;-47
2022/09/01 01:24:05;;;;;;;;;;;14.90;99.90;;;;;;5071465;28;20402;-48
2022/09/01 01:26:30;;;;;;;;;;;14.90;99.90;;;;;;5069301;28;19924;-47
2022/09/01 01:28:56;;;;;;;;;;;14.90;99.90;;;;;;5071385;28;19947;-49
2022/09/01 01:31:23;;;;;;;;;;;14.80;99.90;;;;;;5071252;28;19928;-51
2022/09/01 01:33:50;;;;;;;;;;;14.80;99.90;;;;;;5071466;28;19960;-49
2022/09/01 01:36:18;;;;;;;;;;;14.80;99.90;;;;;;5070950;28;19952;-50
2022/09/01 01:38:45;;;;;;;;;;;14.80;99.90;;;;;;5071269;28;20065;-48
2022/09/01 01:41:12;;;;;;;;;;;14.80;99.90;;;;;;5071088;28;19917;-46
2022/09/01 01:43:38;;;;;;;;;;;14.80;99.90;;;;;;5071174;28;19923;-46
2022/09/01 01:46:06;;;;;;;;;;;14.80;99.90;;;;;;5070562;28;19999;-46
2022/09/01 01:48:33;;;;;;;;;;;14.80;99.90;;;;;;5070337;28;19943;-45
2022/09/01 01:51:00;;;;;;;;;;;14.80;99.90;;;;;;5070831;28;20009;-48
2022/09/01 01:53:26;;;;;;;;;;;14.80;99.90;;;;;;5070842;28;19920;-46
2022/09/01 01:55:51;;;;;;;;;;;14.80;99.90;;;;;;5070331;28;19916;-48
2022/09/01 01:58:20;;;;;;;;;;;14.70;99.90;;;;;;5070276;28;19926;-48
2022/09/01 02:00:50;;;;;;;;;;;14.70;99.90;;;;;;5070959;28;19966;-47
2022/09/01 02:03:23;;;;;;;;;;;14.70;99.90;;;;;;5070701;28;19920;-48
2022/09/01 02:05:50;;;;;;;;;;;14.60;99.90;;;;;;5070266;28;19922;-47
2022/09/01 02:08:20;;;;;;;;;;;14.60;99.90;;;;;;5070327;28;19964;-48
2022/09/01 02:10:48;;;;;;;;;;;14.50;99.90;;;;;;5070721;28;19966;-47
2022/09/01 02:13:18;;;;;;;;;;;14.60;99.90;;;;;;5070255;28;19970;-46
2022/09/01 02:15:48;;;;;;;;;;;14.50;99.90;;;;;;5070419;28;19920;-48
2022/09/01 02:18:16;;;;;;;;;;;14.50;99.90;;;;;;5069782;28;19920;-48
2022/09/01 02:20:43;;;;;;;;;;;14.40;99.90;;;;;;5070488;28;19967;-45
2022/09/01 02:23:09;;;;;;;;;;;14.50;99.90;;;;;;5070128;28;19923;-49
2022/09/01 02:25:35;;;;;;;;;;;14.50;99.90;;;;;;5070224;28;19920;-47
2022/09/01 02:28:03;;;;;;;;;;;14.40;99.90;;;;;;5068231;28;19946;-49
2022/09/01 02:30:31;;;;;;;;;;;14.40;99.90;;;;;;5070307;28;20371;-48
2022/09/01 02:33:00;;;;;;;;;;;14.30;99.90;;;;;;5069944;28;19920;-45
2022/09/01 02:35:35;;;;;;;;;;;14.40;99.90;;;;;;5069671;28;19970;-47
2022/09/01 02:38:01;;;;;;;;;;;14.30;99.90;;;;;;5069689;28;19921;-49
2022/09/01 02:40:30;;;;;;;;;;;14.10;99.90;;;;;;5069455;28;19982;-48
2022/09/01 02:42:58;;;;;;;;;;;14.10;99.90;;;;;;5069747;28;20003;-45
2022/09/01 02:45:25;;;;;;;;;;;14.10;99.90;;;;;;5070108;28;19927;-46
2022/09/01 02:47:51;;;;;;;;;;;14.10;99.90;;;;;;5068624;28;19936;-47
2022/09/01 02:50:17;;;;;;;;;;;14.00;99.90;;;;;;5070112;28;20018;-49
2022/09/01 02:52:45;;;;;;;;;;;14.00;99.90;;;;;;5069885;28;19960;-49
2022/09/01 02:55:10;;;;;;;;;;;14.10;99.90;;;;;;5069373;28;19957;-49
2022/09/01 02:57:36;;;;;;;;;;;14.00;99.90;;;;;;5069556;28;20364;-49
2022/09/01 03:00:03;;;;;;;;;;;14.00;99.90;;;;;;5068634;28;20359;-50
2022/09/01 03:02:30;;;;;;;;;;;13.90;99.90;;;;;;5070023;28;20428;-47
2022/09/01 03:04:56;;;;;;;;;;;13.90;99.90;;;;;;5069531;28;19963;-48
2022/09/01 03:07:22;;;;;;;;;;;14.00;99.90;;;;;;5069082;28;19963;-48
2022/09/01 03:09:48;;;;;;;;;;;13.90;99.90;;;;;;5069502;28;19924;-48
2022/09/01 03:12:14;;;;;;;;;;;13.90;99.90;;;;;;5068118;28;19924;-48
2022/09/01 03:14:39;;;;;;;;;;;13.90;99.90;;;;;;5068878;28;19924;-48
2022/09/01 03:17:05;;;;;;;;;;;13.90;99.90;;;;;;5069108;28;19923;-48
2022/09/01 03:19:38;;;;;;;;;;;13.80;99.90;;;;;;5069019;28;19916;-49
2022/09/01 03:22:04;;;;;;;;;;;13.80;99.90;;;;;;5069518;28;19931;-46
2022/09/01 03:24:31;;;;;;;;;;;13.80;99.90;;;;;;5069665;28;19917;-47
2022/09/01 03:26:56;;;;;;;;;;;13.80;99.90;;;;;;5069267;28;19965;-46
2022/09/01 03:29:22;;;;;;;;;;;13.70;99.90;;;;;;5069175;28;19924;-46
2022/09/01 03:31:47;;;;;;;;;;;13.70;99.90;;;;;;5069416;28;20057;-47
2022/09/01 03:34:15;;;;;;;;;;;13.60;99.90;;;;;;5069325;28;19924;-46
2022/09/01 03:36:48;;;;;;;;;;;13.60;99.90;;;;;;5067435;28;20023;-50
2022/09/01 03:39:15;;;;;;;;;;;13.60;99.90;;;;;;5069479;28;19924;-47
2022/09/01 03:41:40;;;;;;;;;;;13.40;99.90;;;;;;5069638;28;19988;-46
2022/09/01 03:44:09;;;;;;;;;;;13.50;99.90;;;;;;5069152;28;20015;-47
2022/09/01 03:46:35;;;;;;;;;;;13.50;99.90;;;;;;5068474;28;19920;-49
2022/09/01 03:49:02;;;;;;;;;;;13.50;99.90;;;;;;5069117;28;19916;-45
2022/09/01 03:51:29;;;;;;;;;;;13.50;99.90;;;;;;5072082;28;19924;-47
2022/09/01 03:53:56;;;;;;;;;;;13.50;99.90;;;;;;5073157;28;20399;-46
2022/09/01 03:56:24;;;;;;;;;;;13.50;99.90;;;;;;5071159;28;19916;-48
2022/09/01 03:58:50;;;;;;;;;;;13.40;99.90;;;;;;5073041;28;20310;-49
2022/09/01 04:01:17;;;;;;;;;;;13.40;99.90;;;;;;5073269;28;19916;-46
2022/09/01 04:03:45;;;;;;;;;;;13.40;99.90;;;;;;5072799;28;19916;-48
2022/09/01 04:06:11;;;;;;;;;;;13.40;99.90;;;;;;5072508;28;19926;-46
2022/09/01 04:08:38;;;;;;;;;;;13.30;99.90;;;;;;5072999;28;20426;-49
2022/09/01 04:11:12;;;;;;;;;;;13.30;99.90;;;;;;5072790;28;19920;-47
2022/09/01 04:13:39;;;;;;;;;;;13.30;99.90;;;;;;5073219;28;19924;-49
2022/09/01 04:18:03;;;;;;;;;;;13.30;99.90;;;;;;5072452;28;19965;-46
2022/09/01 04:18:54;;;;;;;;;;;13.30;99.90;;;;;;5072128;28;19930;-47
2022/09/01 04:21:20;;;;;;;;;;;13.20;99.90;;;;;;5072861;28;19920;-46
2022/09/01 04:23:47;;;;;;;;;;;13.20;99.90;;;;;;5072332;28;20007;-47
2022/09/01 04:26:19;;;;;;;;;;;13.10;99.90;;;;;;5071272;28;19917;-46
2022/09/01 04:28:49;;;;;;;;;;;13.10;99.90;;;;;;5072579;28;19924;-45
2022/09/01 04:31:17;;;;;;;;;;;13.10;99.90;;;;;;5072385;28;19967;-48
2022/09/01 04:33:45;;;;;;;;;;;13.10;99.90;;;;;;5072488;28;19954;-51
2022/09/01 04:36:19;;;;;;;;;;;13.00;99.90;;;;;;5071940;28;19967;-45
2022/09/01 04:38:45;;;;;;;;;;;13.00;99.90;;;;;;5072023;28;19916;-49
2022/09/01 04:41:16;;;;;;;;;;;13.00;99.90;;;;;;5071728;28;19916;-46
2022/09/01 04:43:46;;;;;;;;;;;13.00;99.90;;;;;;5072157;28;19916;-46
2022/09/01 04:46:13;;;;;;;;;;;13.00;99.90;;;;;;5071450;28;19922;-46
2022/09/01 04:48:41;;;;;;;;;;;13.00;99.90;;;;;;5072009;28;20018;-46
2022/09/01 04:51:09;;;;;;;;;;;12.90;99.90;;;;;;5071008;28;19921;-49
2022/09/01 04:53:38;;;;;;;;;;;12.90;99.90;;;;;;5071880;28;19928;-49
2022/09/01 04:56:08;;;;;;;;;;;12.90;99.90;;;;;;5072169;28;19916;-48
2022/09/01 04:58:35;;;;;;;;;;;12.90;99.90;;;;;;5072055;28;20287;-48
2022/09/01 05:01:06;;;;;;;;;;;12.90;99.90;;;;;;5072194;28;19927;-48
2022/09/01 05:03:32;;;;;;;;;;;12.80;99.90;;;;;;5071744;28;19924;-47
2022/09/01 05:06:00;;;;;;;;;;;12.90;99.90;;;;;;5071461;28;20279;-47
2022/09/01 05:08:25;;;;;;;;;;;12.90;99.90;;;;;;5069784;28;19917;-47
2022/09/01 05:10:54;;;;;;;;;;;12.80;99.90;;;;;;5071780;28;19931;-50
2022/09/01 05:13:22;;;;;;;;;;;12.80;99.90;;;;;;5071732;28;19943;-48
2022/09/01 05:15:58;;;;;;;;;;;12.80;99.90;;;;;;5070984;28;20186;-46
2022/09/01 05:18:24;;;;;;;;;;;12.90;99.90;;;;;;5071095;28;19920;-48
2022/09/01 05:20:51;;;;;;;;;;;12.90;99.90;;;;;;5069699;28;19922;-49
2022/09/01 05:23:18;;;;;;;;;;;12.90;99.90;;;;;;5071749;28;20360;-46
2022/09/01 05:25:45;;;;;;;;;;;12.90;99.90;;;;;;5071026;28;20418;-48
2022/09/01 05:28:13;;;;;;;;;;;12.80;99.90;;;;;;5071325;28;20351;-50
2022/09/01 05:30:40;;;;;;;;;;;12.80;99.90;;;;;;5071223;28;20039;-48
2022/09/01 05:33:10;;;;;;;;;;;12.90;99.90;;;;;;5071378;28;19928;-46
2022/09/01 05:35:42;;;;;;;;;;;13.00;99.90;;;;;;5071419;28;20007;-48
2022/09/01 05:38:11;;;;;;;;;;;13.00;99.90;;;;;;5071332;28;19920;-46
2022/09/01 05:40:40;;;;;;;;;;;13.00;99.90;;;;;;5071202;28;19927;-46
2022/09/01 05:43:09;;;;;;;;;;;13.00;99.90;;;;;;5070885;28;19924;-46
2022/09/01 05:45:35;;;;;;;;;;;13.10;99.90;;;;;;5071088;28;19924;-49
2022/09/01 05:48:02;;;;;;;;;;;13.00;99.90;;;;;;5070022;28;20020;-49
2022/09/01 05:50:27;;;;;;;;;;;13.10;99.90;;;;;;5069719;28;20023;-46
2022/09/01 05:52:53;;;;;;;;;;;13.10;99.90;;;;;;5069648;28;20015;-47
2022/09/01 05:55:19;;;;;;;;;;;13.20;99.90;;;;;;5071132;28;19920;-49
2022/09/01 05:57:46;;;;;;;;;;;13.20;99.90;;;;;;5070393;28;19916;-49
2022/09/01 06:00:13;;;;;;;;;;;13.30;99.90;;;;;;5070580;28;19916;-50
2022/09/01 06:02:39;;;;;;;;;;;13.30;99.90;;;;;;5069280;28;19916;-47
2022/09/01 06:05:05;;;;;;;;;;;13.40;99.90;;;;;;5069365;28;20355;-49
2022/09/01 06:07:31;;;;;;;;;;;13.40;99.90;;;;;;5070097;28;19920;-47
2022/09/01 06:09:58;;;;;;;;;;;13.60;99.90;;;;;;5070672;28;19926;-49
2022/09/01 06:12:24;;;;;;;;;;;13.70;99.90;;;;;;5070598;28;19924;-47
2022/09/01 06:14:52;;;;;;;;;;;13.80;99.90;;;;;;5069606;28;20322;-48
2022/09/01 06:17:23;;;;;;;;;;;13.80;99.90;;;;;;5068809;28;19920;-50
2022/09/01 06:19:54;;;;;;;;;;;13.90;99.90;;;;;;5069958;28;19970;-48
2022/09/01 06:22:20;;;;;;;;;;;13.90;99.90;;;;;;5070228;28;19923;-46
2022/09/01 06:24:46;;;;;;;;;;;13.90;99.90;;;;;;5070305;28;19928;-47
2022/09/01 06:27:16;;;;;;;;;;;13.90;99.90;;;;;;5069938;28;19920;-47
2022/09/01 06:29:44;;;;;;;;;;;14.10;99.90;;;;;;5070264;28;19926;-47
2022/09/01 06:32:11;;;;;;;;;;;14.10;99.90;;;;;;5068585;28;19932;-48
2022/09/01 06:34:44;;;;;;;;;;;14.20;99.90;;;;;;5070137;28;19969;-48
2022/09/01 06:37:11;;;;;;;;;;;14.20;99.90;;;;;;5069865;28;19916;-48
2022/09/01 06:39:37;;;;;;;;;;;14.30;99.90;;;;;;5069601;28;19920;-49
2022/09/01 06:42:03;;;;;;;;;;;14.40;99.90;;;;;;5070094;28;19920;-48
2022/09/01 06:44:30;;;;;;;;;;;14.40;99.90;;;;;;5068769;28;19917;-48
2022/09/01 06:46:56;;;;;;;;;;;14.40;99.90;;;;;;5068283;28;19970;-49
2022/09/01 06:49:28;;;;;;;;;;;14.50;99.90;;;;;;5067989;28;19920;-48
2022/09/01 06:51:53;;;;;;;;;;;14.50;99.90;;;;;;5069425;28;19969;-48
2022/09/01 06:54:21;;;;;;;;;;;14.70;99.90;;;;;;5070026;28;20389;-45
2022/09/01 06:56:47;;;;;;;;;;;14.70;99.90;;;;;;5069544;28;19971;-48
2022/09/01 06:59:14;;;;;;;;;;;14.80;99.90;;;;;;5070017;28;20489;-46
2022/09/01 07:01:40;;;;;;;;;;;14.90;99.90;;;;;;5069937;28;19922;-49
2022/09/01 07:04:05;;;;;;;;;;;15.00;99.90;;;;;;5068027;28;20410;-47
2022/09/01 07:06:31;;;;;;;;;;;15.00;99.90;;;;;;5069432;28;19939;-47
2022/09/01 07:08:57;;;;;;;;;;;15.20;99.90;;;;;;5069599;28;19921;-49
2022/09/01 07:11:27;;;;;;;;;;;15.20;99.90;;;;;;5069828;28;20363;-48
2022/09/01 07:13:54;;;;;;;;;;;15.40;99.90;;;;;;5068000;28;19925;-47
2022/09/01 07:16:21;;;;;;;;;;;15.40;99.90;;;;;;5069316;28;20050;-48
2022/09/01 07:18:48;;;;;;;;;;;15.60;99.90;;;;;;5069399;28;20007;-46
2022/09/01 07:21:13;;;;;;;;;;;15.70;99.90;;;;;;5070186;28;20279;-49
2022/09/01 07:23:40;;;;;;;;;;;15.70;99.90;;;;;;5069339;28;19920;-45
2022/09/01 07:26:06;;;;;;;;;;;15.70;99.90;;;;;;5071571;28;20454;-47
2022/09/01 07:28:32;;;;;;;;;;;15.90;99.90;;;;;;5071745;28;20011;-46
2022/09/01 07:30:59;;;;;;;;;;;16.00;99.90;;;;;;5071997;28;19920;-47
2022/09/01 07:33:26;;;;;;;;;;;16.10;99.90;;;;;;5073187;28;19920;-49
2022/09/01 07:35:54;;;;;;;;;;;16.20;99.90;;;;;;5072043;28;20403;-46
2022/09/01 07:38:20;;;;;;;;;;;16.40;99.90;;;;;;5073338;28;19946;-48
2022/09/01 07:40:46;;;;;;;;;;;16.30;99.90;;;;;;5073450;28;19916;-48
2022/09/01 07:43:21;;;;;;;;;;;16.40;99.90;;;;;;5073619;28;20007;-50
2022/09/01 07:45:48;;;;;;;;;;;16.40;99.90;;;;;;5073216;28;19916;-47
2022/09/01 07:48:18;;;;;;;;;;;16.50;99.90;;;;;;5070848;28;19921;-49
2022/09/01 07:50:46;;;;;;;;;;;16.80;99.90;;;;;;5072870;28;20011;-48
2022/09/01 07:53:17;;;;;;;;;;;16.90;99.90;;;;;;5071899;28;20141;-50
2022/09/01 07:55:43;;;;;;;;;;;16.80;99.90;;;;;;5072990;28;20367;-46
2022/09/01 07:58:09;;;;;;;;;;;17.10;99.90;;;;;;5072953;28;19923;-49
2022/09/01 08:00:35;;;;;;;;;;;17.20;99.90;;;;;;5072863;28;20383;-48
2022/09/01 08:03:01;;;;;;;;;;;17.30;99.90;;;;;;5072797;28;19916;-53
2022/09/01 08:05:27;;;;;;;;;;;17.40;99.90;;;;;;5073064;28;20030;-49
2022/09/01 08:07:53;;;;;;;;;;;17.40;99.90;;;;;;5072694;28;19947;-50
2022/09/01 08:10:19;;;;;;;;;;;17.40;99.90;;;;;;5073033;28;19916;-47
2022/09/01 08:12:44;;;;;;;;;;;17.60;99.90;;;;;;5072634;28;19964;-48
2022/09/01 08:15:11;;;;;;;;;;;17.60;99.90;;;;;;5071358;28;21005;-46
2022/09/01 08:17:36;;;;;;;;;;;17.80;99.90;;;;;;5072824;28;19920;-49
2022/09/01 08:20:02;;;;;;;;;;;17.70;99.90;;;;;;5071512;28;19924;-49
2022/09/01 08:22:28;;;;;;;;;;;18.00;99.90;;;;;;5072676;28;19920;-47
2022/09/01 08:24:54;;;;;;;;;;;17.90;99.90;;;;;;5071888;28;20109;-47
2022/09/01 08:27:19;;;;;;;;;;;18.20;99.90;;;;;;5054095;28;19970;-48
2022/09/01 08:29:45;;;;;;;;;;;18.40;99.90;;;;;;5072678;28;19920;-50
2022/09/01 08:32:11;;;;;;;;;;;18.60;99.90;;;;;;5072189;28;20015;-48
2022/09/01 08:34:36;;;;;;;;;;;18.70;99.90;;;;;;5072033;28;19916;-50
2022/09/01 08:37:03;;;;;;;;;;;18.80;99.90;;;;;;5071073;28;19916;-47
2022/09/01 08:39:29;;;;;;;;;;;18.80;99.90;;;;;;5072310;28;20003;-46
2022/09/01 08:41:54;;;;;;;;;;;19.10;99.90;;;;;;5072427;28;20011;-47
2022/09/01 08:44:40;;;;;;;;;;;19.10;99.90;;;;;;5072495;28;20363;-49
2022/09/01 08:47:07;;;;;;;;;;;19.20;99.90;;;;;;5071721;28;19924;-47
2022/09/01 08:49:33;;;;;;;;;;;19.50;99.90;;;;;;5071897;28;19967;-48
2022/09/01 08:51:59;;;;;;;;;;;19.60;99.10;;;;;;5072200;28;19989;-46
2022/09/01 08:54:43;;;;;;;;;;;19.60;99.10;;;;;;5072187;28;19916;-48
2022/09/01 08:57:28;;;;;;;;;;;19.80;99.20;;;;;;5071729;28;20015;-52
2022/09/01 08:59:53;;;;;;;;;;;20.00;98.40;;;;;;5071990;28;20317;-46
2022/09/01 09:02:25;;;;;;;;;;;20.10;97.60;;;;;;5072055;28;19966;-46
2022/09/01 09:05:07;;;;;;;;;;;20.30;97.40;;;;;;5071975;28;20387;-49
2022/09/01 09:07:36;;;;;;;;;;;20.40;97.30;;;;;;5070017;28;20314;-50
2022/09/01 09:10:05;;;;;;;;;;;20.50;96.70;;;;;;5071980;28;19916;-49
2022/09/01 09:12:50;;;;;;;;;;;20.70;96.90;;;;;;5071694;28;19926;-48
2022/09/01 09:15:19;;;;;;;;;;;20.70;96.80;;;;;;5070698;28;20355;-48
2022/09/01 09:17:52;;;;;;;;;;;20.90;96.00;;;;;;5071161;28;20418;-48
2022/09/01 09:20:17;;;;;;;;;;;20.90;95.30;;;;;;5071367;28;19920;-49
2022/09/01 09:22:44;;;;;;;;;;;21.00;94.60;;;;;;5071431;28;19986;-47
2022/09/01 09:25:14;;;;;;;;;;;21.30;94.40;;;;;;5071651;28;19924;-48
2022/09/01 09:27:41;;;;;;;;;;;21.10;93.70;;;;;;5071045;28;19916;-46
2022/09/01 09:30:11;;;;;;;;;;;21.30;94.10;;;;;;5070142;28;20427;-49
2022/09/01 09:32:51;;;;;;;;;;;21.40;93.70;;;;;;5070946;28;19925;-50
2022/09/01 09:35:26;;;;;;;;;;;21.50;93.80;;;;;;5071511;28;20014;-49
2022/09/01 09:37:52;;;;;;;;;;;21.60;93.60;;;;;;5070945;28;19916;-48
2022/09/01 09:40:19;;;;;;;;;;;21.70;93.80;;;;;;5071339;28;20485;-49
2022/09/01 09:42:54;;;;;;;;;;;21.70;93.80;;;;;;5071184;28;20341;-46
2022/09/01 09:45:27;;;;;;;;;;;21.80;93.20;;;;;;5071229;28;20011;-47
2022/09/01 09:47:53;;;;;;;;;;;21.80;92.90;;;;;;5070017;28;20355;-48
2022/09/01 09:50:28;;;;;;;;;;;21.90;93.00;;;;;;5070656;28;20306;-51
2022/09/01 09:53:10;;;;;;;;;;;21.90;92.90;;;;;;5070475;28;19920;-46
2022/09/01 09:55:49;;;;;;;;;;;21.90;92.50;;;;;;5070878;28;19959;-46
2022/09/01 09:58:14;;;;;;;;;;;22.00;93.10;;;;;;5070320;28;20363;-47
2022/09/01 10:00:56;;;;;;;;;;;22.00;92.70;;;;;;5069393;28;20866;-50
2022/09/01 10:03:32;;;;;;;;;;;22.10;92.20;;;;;;5069418;28;20394;-49
2022/09/01 10:05:58;;;;;;;;;;;22.20;92.40;;;;;;5070592;28;20203;-48
2022/09/01 10:08:26;;;;;;;;;;;22.30;92.50;;;;;;5069271;28;20326;-47
2022/09/01 10:10:52;;;;;;;;;;;22.30;92.00;;;;;;5069985;28;19970;-49
2022/09/01 10:13:19;;;;;;;;;;;22.50;92.10;;;;;;5070969;28;19928;-49
2022/09/01 10:15:55;;;;;;;;;;;22.30;90.80;;;;;;5070503;28;19917;-50
2022/09/01 10:18:22;;;;;;;;;;;22.50;92.10;;;;;;5069595;28;20869;-49
2022/09/01 10:20:54;;;;;;;;;;;22.50;90.60;;;;;;5070536;28;19982;-48
2022/09/01 10:23:19;;;;;;;;;;;22.50;90.90;;;;;;5070442;28;19923;-49
2022/09/01 10:25:49;;;;;;;;;;;22.60;90.30;;;;;;5070300;28;19916;-47
2022/09/01 10:28:16;;;;;;;;;;;22.60;89.50;;;;;;5070146;28;19955;-47
2022/09/01 10:30:44;;;;;;;;;;;22.70;90.10;;;;;;5070012;28;20314;-48
2022/09/01 10:33:11;;;;;;;;;;;22.40;90.00;;;;;;5070316;28;19954;-49
2022/09/01 10:35:40;;;;;;;;;;;22.10;89.60;;;;;;5069179;28;19932;-50
2022/09/01 10:38:17;;;;;;;;;;;22.20;90.20;;;;;;5069740;28;19916;-49
2022/09/01 10:40:49;;;;;;;;;;;22.00;89.40;;;;;;5070006;28;19920;-49
2022/09/01 10:43:37;;;;;;;;;;;22.00;90.10;;;;;;5070431;28;19916;-49
2022/09/01 10:46:17;;;;;;;;;;;22.20;90.30;;;;;;5069588;28;19931;-49
2022/09/01 10:48:43;;;;;;;;;;;22.50;89.90;;;;;;5069605;28;19920;-48
2022/09/01 10:51:11;;;;;;;;;;;22.30;90.10;;;;;;5069996;28;19970;-48
2022/09/01 10:53:37;;;;;;;;;;;22.50;88.00;;;;;;5069980;28;19920;-46
2022/09/01 10:56:06;;;;;;;;;;;23.00;88.70;;;;;;5069780;28;19925;-48
2022/09/01 10:58:41;;;;;;;;;;;23.30;87.10;;;;;;5070093;28;19920;-50
2022/09/01 11:01:07;;;;;;;;;;;23.40;87.40;;;;;;5068936;28;19931;-47
2022/09/01 11:03:37;;;;;;;;;;;23.90;87.40;;;;;;5069974;28;19916;-49
2022/09/01 11:06:04;;;;;;;;;;;24.00;82.80;;;;;;5069516;28;20007;-46
2022/09/01 11:08:30;;;;;;;;;;;24.30;83.20;;;;;;5069786;28;19916;-49
2022/09/01 11:10:55;;;;;;;;;;;24.20;82.50;;;;;;5069796;28;19927;-47
2022/09/01 11:13:24;;;;;;;;;;;23.60;83.30;;;;;;5069871;28;19979;-47
2022/09/01 11:15:49;;;;;;;;;;;23.70;83.40;;;;;;5068298;28;19923;-49
2022/09/01 11:18:15;;;;;;;;;;;24.00;82.80;;;;;;5069725;28;20287;-48
2022/09/01 11:20:41;;;;;;;;;;;24.10;82.00;;;;;;5069033;28;20433;-47
2022/09/01 11:23:10;;;;;;;;;;;24.10;81.00;;;;;;5069805;28;20346;-49
2022/09/01 11:25:39;;;;;;;;;;;24.30;82.90;;;;;;5069811;28;19986;-48
2022/09/01 11:28:04;;;;;;;;;;;24.90;83.90;;;;;;5069548;28;19947;-49
2022/09/01 11:30:30;;;;;;;;;;;25.00;80.90;;;;;;5069794;28;20378;-48
2022/09/01 11:32:58;;;;;;;;;;;25.00;81.90;;;;;;5068829;28;19928;-48
2022/09/01 11:35:26;;;;;;;;;;;24.80;79.70;;;;;;5069762;28;19920;-47
2022/09/01 11:37:54;;;;;;;;;;;25.30;80.00;;;;;;5068864;28;19916;-51
2022/09/01 11:40:23;;;;;;;;;;;25.40;80.20;;;;;;5069685;28;20219;-50
2022/09/01 11:42:50;;;;;;;;;;;25.60;79.50;;;;;;5068953;28;19916;-50
2022/09/01 11:45:17;;;;;;;;;;;25.20;77.90;;;;;;5069240;28;19916;-49
2022/09/01 11:47:44;;;;;;;;;;;25.10;78.00;;;;;;5068536;28;20524;-46
2022/09/01 11:50:18;;;;;;;;;;;25.30;79.40;;;;;;5069311;28;20271;-46
2022/09/01 11:52:51;;;;;;;;;;;24.90;77.70;;;;;;5068079;28;19971;-48
2022/09/01 11:55:27;;;;;;;;;;;24.40;78.20;;;;;;5067938;28;20391;-49
2022/09/01 11:57:52;;;;;;;;;;;24.90;78.70;;;;;;5069372;28;20023;-50
2022/09/01 12:00:24;;;;;;;;;;;25.00;77.70;;;;;;5069342;28;20003;-45
2022/09/01 12:02:51;;;;;;;;;;;24.50;77.40;;;;;;5069159;28;20050;-48
2022/09/01 12:05:25;;;;;;;;;;;24.10;78.60;;;;;;5068997;28;19916;-48
2022/09/01 12:07:51;;;;;;;;;;;24.50;79.30;;;;;;5068820;28;20053;-47
2022/09/01 12:10:28;;;;;;;;;;;24.70;77.50;;;;;;5069181;28;20027;-48
2022/09/01 12:13:00;;;;;;;;;;;24.30;78.30;;;;;;5072780;28;20367;-48
2022/09/01 12:15:26;;;;;;;;;;;24.50;78.40;;;;;;5072425;28;19923;-48
2022/09/01 12:17:52;;;;;;;;;;;24.30;77.80;;;;;;5072686;28;19916;-47
2022/09/01 12:20:22;;;;;;;;;;;24.80;77.70;;;;;;5072491;28;20283;-47
2022/09/01 12:22:48;;;;;;;;;;;25.30;77.00;;;;;;5072316;28;19921;-47
2022/09/01 12:25:40;;;;;;;;;;;25.60;77.10;;;;;;5072150;28;19931;-48
2022/09/01 12:28:05;;;;;;;;;;;25.20;76.20;;;;;;5069519;28;19999;-47
2022/09/01 12:30:38;;;;;;;;;;;25.20;74.70;;;;;;5072567;28;20082;-48
2022/09/01 12:33:08;;;;;;;;;;;25.90;74.80;;;;;;5070868;28;20375;-47
2022/09/01 12:35:34;;;;;;;;;;;26.30;76.20;;;;;;5072221;28;19916;-48
2022/09/01 12:38:15;;;;;;;;;;;26.30;73.20;;;;;;5071920;28;19977;-51
2022/09/01 12:40:41;;;;;;;;;;;26.70;74.20;;;;;;5072127;28;20355;-48
2022/09/01 12:43:06;;;;;;;;;;;26.70;73.70;;;;;;5071085;28;19923;-48
2022/09/01 12:45:43;;;;;;;;;;;27.10;73.50;;;;;;5071891;28;20320;-50
2022/09/01 12:48:24;;;;;;;;;;;27.10;73.40;;;;;;5072006;28;19921;-49
2022/09/01 12:50:50;;;;;;;;;;;27.50;71.90;;;;;;5071771;28;20290;-46
2022/09/01 12:53:17;;;;;;;;;;;27.60;70.30;;;;;;5071825;28;20255;-49
2022/09/01 12:55:54;;;;;;;;;;;27.70;70.20;;;;;;5070437;28;20433;-48
2022/09/01 12:58:22;;;;;;;;;;;27.70;70.60;;;;;;5072061;28;20019;-48
2022/09/01 13:00:57;;;;;;;;;;;27.50;68.90;;;;;;5072036;28;20359;-46
2022/09/01 13:03:22;;;;;;;;;;;27.80;68.80;;;;;;5071715;28;20111;-46
2022/09/01 13:05:52;;;;;;;;;;;27.70;69.20;;;;;;5071817;28;19916;-52
2022/09/01 13:08:19;;;;;;;;;;;28.00;68.00;;;;;;5071884;28;19924;-48
2022/09/01 13:10:55;;;;;;;;;;;28.20;68.10;;;;;;5072049;28;19923;-50
2022/09/01 13:13:23;;;;;;;;;;;28.20;69.10;;;;;;5071904;28;20370;-48
2022/09/01 13:15:50;;;;;;;;;;;28.00;68.80;;;;;;5071551;28;19917;-52
2022/09/01 13:18:17;;;;;;;;;;;28.60;69.40;;;;;;5071606;28;20423;-47
2022/09/01 13:20:43;;;;;;;;;;;28.60;68.40;;;;;;5071022;28;20386;-48
2022/09/01 13:23:09;;;;;;;;;;;28.60;67.50;;;;;;5071101;28;19916;-51
2022/09/01 13:25:35;;;;;;;;;;;28.80;68.80;;;;;;5071529;28;20440;-47
2022/09/01 13:28:01;;;;;;;;;;;28.70;68.20;;;;;;5070829;28;19990;-49
2022/09/01 13:30:27;;;;;;;;;;;28.10;67.80;;;;;;5071691;28;20001;-48
2022/09/01 13:32:53;;;;;;;;;;;27.90;68.90;;;;;;5071042;28;19930;-48
2022/09/01 13:35:20;;;;;;;;;;;28.50;69.30;;;;;;5071615;28;19917;-46
2022/09/01 13:37:46;;;;;;;;;;;28.50;68.30;;;;;;5070887;28;19927;-47
2022/09/01 13:40:14;;;;;;;;;;;28.70;68.00;;;;;;5069942;28;19920;-47
2022/09/01 13:42:40;;;;;;;;;;;28.90;68.10;;;;;;5070875;28;19916;-45
2022/09/01 13:45:06;;;;;;;;;;;28.70;66.60;;;;;;5069635;28;20011;-47
2022/09/01 13:47:32;;;;;;;;;;;28.60;67.40;;;;;;5070661;28;19999;-46
2022/09/01 13:49:58;;;;;;;;;;;28.40;67.00;;;;;;5070793;28;19932;-48
2022/09/01 13:52:24;;;;;;;;;;;27.70;67.70;;;;;;5070668;28;19921;-48
2022/09/01 13:54:50;;;;;;;;;;;27.60;67.00;;;;;;5071056;28;20394;-49
2022/09/01 13:57:16;;;;;;;;;;;27.70;67.50;;;;;;5070192;28;19923;-47
2022/09/01 13:59:42;;;;;;;;;;;27.90;66.90;;;;;;5070579;28;19924;-48
2022/09/01 14:02:09;;;;;;;;;;;28.60;66.10;;;;;;5069956;28;19921;-44
2022/09/01 14:04:34;;;;;;;;;;;29.20;68.00;;;;;;5070570;28;20003;-46
2022/09/01 14:07:00;;;;;;;;;;;29.20;66.40;;;;;;5070422;28;20015;-49
2022/09/01 14:09:25;;;;;;;;;;;29.30;65.70;;;;;;5070811;28;20276;-50
2022/09/01 14:11:52;;;;;;;;;;;29.00;65.10;;;;;;5070877;28;19931;-46
2022/09/01 14:14:18;;;;;;;;;;;28.50;65.00;;;;;;5070551;28;19916;-48
2022/09/01 14:16:44;;;;;;;;;;;28.00;65.50;;;;;;5070002;28;19916;-47
2022/09/01 14:19:10;;;;;;;;;;;28.50;66.20;;;;;;5070056;28;20022;-48
2022/09/01 14:21:36;;;;;;;;;;;28.60;65.10;;;;;;5070770;28;20003;-49
2022/09/01 14:24:02;;;;;;;;;;;28.60;64.80;;;;;;5069281;28;20012;-50